Time;durP1;ratioP1;P1;durP2;ratioP2;P2;SDS_P1;SDS_P2;PMS_P1;PMS_P2;Temp;Humidity;BMP_temperature;BMP_pressure;BME280_temperature;BME280_humidity;BME280_pressure;Samples;Min_cycle;Max_cycle;Signal;HPM_P1;HPM_P2
2021/11/21 00:02:02;;;;;;;0.20;0.10;;;;;;;6.17;100.00;99854.03;5014520;28;20026;-75
2021/11/21 00:04:27;;;;;;;0.65;0.20;;;;;;;6.26;100.00;99854.72;5019134;28;20017;-75
2021/11/21 00:06:53;;;;;;;0.57;0.10;;;;;;;6.25;100.00;99863.75;4995011;28;20058;-75
2021/11/21 00:09:18;;;;;;;0.47;0.20;;;;;;;6.05;100.00;99816.34;5011449;28;20081;-75
2021/11/21 00:11:44;;;;;;;0.60;0.15;;;;;;;6.21;100.00;99868.66;5014459;28;20033;-75
2021/11/21 00:14:09;;;;;;;0.30;0.15;;;;;;;6.18;100.00;99858.34;5011937;28;20108;-75
2021/11/21 00:16:35;;;;;;;1.23;0.10;;;;;;;6.22;100.00;99864.13;5013045;28;20044;-75
2021/11/21 00:19:01;;;;;;;0.20;0.15;;;;;;;6.27;100.00;99867.06;5013219;28;20041;-76
2021/11/21 00:21:26;;;;;;;1.63;0.20;;;;;;;6.28;100.00;99869.53;5012337;28;20031;-75
2021/11/21 00:23:52;;;;;;;0.98;0.20;;;;;;;6.18;100.00;99860.19;5014168;28;20462;-75
2021/11/21 00:26:18;;;;;;;0.57;0.20;;;;;;;6.20;100.00;99847.47;5012371;28;20026;-75
2021/11/21 00:28:43;;;;;;;0.88;0.20;;;;;;;6.19;100.00;99857.34;5014637;28;20030;-76
2021/11/21 00:31:09;;;;;;;2.42;0.28;;;;;;;6.33;100.00;99866.28;5016707;28;20367;-75
2021/11/21 00:33:36;;;;;;;2.08;0.30;;;;;;;6.10;100.00;99834.47;5014054;28;20112;-75
2021/11/21 00:36:02;;;;;;;1.35;0.20;;;;;;;6.23;100.00;99871.16;5012766;28;20041;-75
2021/11/21 00:38:28;;;;;;;2.30;0.22;;;;;;;6.27;100.00;99867.88;5014050;28;20018;-75
2021/11/21 00:40:53;;;;;;;1.02;0.20;;;;;;;6.29;100.00;99873.88;5010940;28;20475;-75
2021/11/21 00:43:21;;;;;;;0.50;0.20;;;;;;;6.32;100.00;99880.63;5012747;28;20124;-75
2021/11/21 00:45:47;;;;;;;1.27;0.20;;;;;;;6.24;100.00;99867.44;5012121;28;20025;-76
2021/11/21 00:48:19;;;;;;;0.28;0.10;;;;;;;6.27;100.00;99891.09;4996563;28;20044;-75
2021/11/21 00:50:45;;;;;;;0.98;0.20;;;;;;;6.27;100.00;99869.72;5011062;28;20428;-75
2021/11/21 00:53:11;;;;;;;0.75;0.10;;;;;;;6.45;100.00;99895.94;5016108;28;20100;-75
2021/11/21 00:55:43;;;;;;;0.32;0.15;;;;;;;6.44;100.00;99884.44;5015091;28;20026;-75
2021/11/21 00:58:11;;;;;;;0.30;0.20;;;;;;;6.44;100.00;99894.31;5016145;28;20030;-75
2021/11/21 01:00:40;;;;;;;0.10;0.10;;;;;;;6.48;100.00;99901.72;5014513;28;20026;-75
2021/11/21 01:03:07;;;;;;;0.30;0.10;;;;;;;6.50;100.00;99896.22;5015921;28;20018;-75
2021/11/21 01:05:33;;;;;;;1.80;0.30;;;;;;;6.49;100.00;99887.38;5015844;28;20038;-75
2021/11/21 01:07:58;;;;;;;0.45;0.25;;;;;;;6.57;100.00;99884.53;5016087;28;20129;-75
2021/11/21 01:10:24;;;;;;;3.33;0.20;;;;;;;6.61;100.00;99884.16;5016472;28;20041;-75
2021/11/21 01:12:53;;;;;;;1.83;0.20;;;;;;;6.55;100.00;99891.91;4997882;28;20036;-75
2021/11/21 01:15:23;;;;;;;0.20;0.10;;;;;;;6.18;100.00;99845.00;5015695;28;20431;-75
2021/11/21 01:17:50;;;;;;;0.60;0.20;;;;;;;6.51;100.00;99896.00;5015763;28;20368;-75
2021/11/21 01:20:17;;;;;;;2.05;0.28;;;;;;;6.57;100.00;99895.22;5015901;28;20087;-75
2021/11/21 01:22:44;;;;;;;0.80;0.20;;;;;;;6.47;100.00;99872.53;5015310;28;20353;-75
2021/11/21 01:25:11;;;;;;;0.95;0.32;;;;;;;6.66;100.00;99893.22;5016750;28;20030;-75
2021/11/21 01:27:37;;;;;;;3.25;0.20;;;;;;;6.59;100.00;99874.47;5018110;28;20022;-75
2021/11/21 01:30:06;;;;;;;0.38;0.20;;;;;;;6.27;100.00;99878.56;5015125;28;20108;-75
2021/11/21 01:32:31;;;;;;;0.57;0.13;;;;;;;6.43;100.00;99874.78;5015825;28;20048;-74
2021/11/21 01:34:56;;;;;;;0.68;0.20;;;;;;;6.51;100.00;99889.84;4980571;28;20034;-75
2021/11/21 01:37:22;;;;;;;1.55;0.20;;;;;;;6.51;100.00;99887.16;5016799;28;20113;-75
2021/11/21 01:39:47;;;;;;;0.88;0.20;;;;;;;6.23;100.00;99844.44;4998551;28;20026;-75
2021/11/21 01:42:13;;;;;;;0.77;0.10;;;;;;;6.50;100.00;99888.19;5016771;28;20033;-75
2021/11/21 01:44:38;;;;;;;1.20;0.20;;;;;;;6.55;100.00;99894.59;5014659;28;20486;-75
2021/11/21 01:47:06;;;;;;;0.88;0.25;;;;;;;6.62;100.00;99897.31;5013618;28;20079;-75
2021/11/21 01:49:32;;;;;;;0.30;0.20;;;;;;;6.61;100.00;99900.19;5014754;28;20117;-75
2021/11/21 01:51:58;;;;;;;1.05;0.10;;;;;;;6.47;100.00;99900.09;5018691;28;20057;-75
2021/11/21 01:54:23;;;;;;;3.20;0.20;;;;;;;6.56;100.00;99920.31;5016677;28;20529;-74
2021/11/21 01:56:49;;;;;;;3.75;0.20;;;;;;;6.41;100.00;99898.19;5015297;28;20451;-75
2021/11/21 01:59:15;;;;;;;0.30;0.20;;;;;;;6.50;100.00;99925.59;5014680;28;20030;-75
2021/11/21 02:01:41;;;;;;;0.85;0.20;;;;;;;6.39;100.00;99913.59;4997519;28;20083;-75
2021/11/21 02:04:06;;;;;;;0.65;0.20;;;;;;;6.41;100.00;99935.59;5014700;28;20117;-75
2021/11/21 02:06:31;;;;;;;0.68;0.20;;;;;;;6.25;100.00;99933.19;5012611;28;20133;-75
2021/11/21 02:08:57;;;;;;;0.47;0.17;;;;;;;6.13;100.00;99945.44;5014789;28;20337;-75
2021/11/21 02:11:27;;;;;;;2.17;0.20;;;;;;;6.14;100.00;99957.78;5013654;28;20474;-75
2021/11/21 02:13:53;;;;;;;1.15;0.20;;;;;;;6.17;100.00;99952.88;4998828;28;20140;-75
2021/11/21 02:16:21;;;;;;;1.98;0.30;;;;;;;6.09;100.00;99969.00;5014420;28;20021;-75
2021/11/21 02:18:47;;;;;;;0.43;0.28;;;;;;;5.78;100.00;99943.41;5014600;28;20029;-75
2021/11/21 02:21:14;;;;;;;1.88;0.50;;;;;;;5.93;100.00;99977.25;5013605;28;20029;-75
2021/11/21 02:23:41;;;;;;;3.47;0.70;;;;;;;5.86;100.00;99966.47;5013732;28;20022;-75
2021/11/21 02:26:06;;;;;;;0.57;0.28;;;;;;;5.89;100.00;99971.44;5014142;28;20079;-75
2021/11/21 02:28:33;;;;;;;1.13;0.30;;;;;;;5.96;100.00;99975.06;5013372;28;20038;-75
2021/11/21 02:31:00;;;;;;;1.30;0.20;;;;;;;6.01;100.00;99972.63;5014107;28;20036;-75
2021/11/21 02:33:25;;;;;;;4.57;0.50;;;;;;;5.88;100.00;99953.78;5015541;28;20026;-75
2021/11/21 02:35:55;;;;;;;1.00;0.20;;;;;;;6.00;100.00;99968.31;5015642;28;20021;-75
2021/11/21 02:38:23;;;;;;;2.33;0.40;;;;;;;6.04;100.00;99969.59;5015631;28;20072;-75
2021/11/21 02:40:49;;;;;;;1.70;0.35;;;;;;;5.99;100.00;99982.66;5016084;28;20128;-75
2021/11/21 02:43:17;;;;;;;0.98;0.20;;;;;;;5.97;100.00;99978.56;4997297;28;20089;-76
2021/11/21 02:45:44;;;;;;;1.17;0.30;;;;;;;6.04;100.00;99974.94;5013181;28;20448;-75
2021/11/21 02:48:09;;;;;;;0.65;0.30;;;;;;;6.08;100.00;99976.19;5014473;28;20073;-75
2021/11/21 02:50:35;;;;;;;0.90;0.20;;;;;;;6.10;100.00;99981.38;5011194;28;20116;-75
2021/11/21 02:53:00;;;;;;;0.32;0.10;;;;;;;6.06;100.00;99978.25;5015009;28;20623;-75
2021/11/21 02:55:32;;;;;;;0.60;0.20;;;;;;;5.94;100.00;99971.75;5012118;28;20100;-75
2021/11/21 02:57:59;;;;;;;1.73;0.50;;;;;;;5.93;100.00;99972.78;5014439;28;20018;-76
2021/11/21 03:00:25;;;;;;;0.28;0.20;;;;;;;6.04;100.00;99992.81;5012999;28;20329;-75
2021/11/21 03:02:51;;;;;;;2.03;0.40;;;;;;;6.02;100.00;99995.63;5012510;28;20026;-75
2021/11/21 03:05:19;;;;;;;0.15;0.13;;;;;;;6.05;100.00;99997.13;5012712;28;20061;-76
2021/11/21 03:07:45;;;;;;;1.42;0.30;;;;;;;5.92;100.00;99976.41;5014668;28;20026;-75
2021/11/21 03:10:14;;;;;;;1.05;0.20;;;;;;;6.04;100.00;99996.28;5015498;28;20134;-75
2021/11/21 03:12:40;;;;;;;1.85;0.20;;;;;;;6.07;100.00;99995.91;5013037;28;20029;-75
2021/11/21 03:15:05;;;;;;;1.52;0.32;;;;;;;5.99;100.00;100001.34;5016702;28;20398;-75
2021/11/21 03:17:31;;;;;;;2.63;0.30;;;;;;;5.82;100.00;99966.03;5015930;28;20044;-75
2021/11/21 03:19:56;;;;;;;2.00;0.30;;;;;;;5.96;100.00;100000.91;5014624;28;20467;-75
2021/11/21 03:22:22;;;;;;;1.48;0.30;;;;;;;5.86;100.00;100002.03;5013589;28;20041;-76
2021/11/21 03:24:47;;;;;;;1.05;0.20;;;;;;;5.80;100.00;99993.94;5013714;28;20022;-75
2021/11/21 03:27:16;;;;;;;0.57;0.20;;;;;;;5.69;100.00;99994.41;5016864;28;20484;-76
2021/11/21 03:29:41;;;;;;;0.63;0.20;;;;;;;5.62;100.00;99992.50;5019438;28;20038;-75
2021/11/21 03:32:07;;;;;;;0.50;0.20;;;;;;;5.70;100.00;100006.78;5015117;28;20083;-75
2021/11/21 03:34:34;;;;;;;0.55;0.10;;;;;;;5.63;100.00;99996.84;5013728;28;20058;-76
2021/11/21 03:37:00;;;;;;;0.50;0.20;;;;;;;5.64;100.00;99998.47;4995406;28;20034;-75
2021/11/21 03:39:25;;;;;;;0.30;0.20;;;;;;;5.75;100.00;100017.69;5011230;28;20489;-75
2021/11/21 03:41:51;;;;;;;0.47;0.10;;;;;;;5.80;100.00;100015.31;5012923;28;20037;-75
2021/11/21 03:44:16;;;;;;;1.33;0.10;;;;;;;5.68;100.00;100006.13;4994272;28;20045;-75
2021/11/21 03:46:41;;;;;;;0.98;0.10;;;;;;;5.71;100.00;100011.09;4997604;28;20100;-76
2021/11/21 03:49:07;;;;;;;0.50;0.20;;;;;;;5.80;100.00;100018.78;5015338;28;20088;-75
2021/11/21 03:51:33;;;;;;;0.80;0.38;;;;;;;5.84;100.00;100017.41;5018779;28;20064;-75
2021/11/21 03:53:59;;;;;;;1.13;0.20;;;;;;;5.84;100.00;100024.59;4992722;28;20022;-76
2021/11/21 03:56:25;;;;;;;0.65;0.30;;;;;;;5.75;100.00;100023.03;5010024;28;20096;-75
2021/11/21 03:58:51;;;;;;;0.25;0.10;;;;;;;5.73;100.00;100017.91;4996499;28;20019;-75
2021/11/21 04:01:16;;;;;;;1.10;0.20;;;;;;;5.46;100.00;100007.88;5014700;28;20051;-76
2021/11/21 04:03:43;;;;;;;1.38;0.50;;;;;;;5.61;100.00;100028.22;5013275;28;20506;-75
2021/11/21 04:06:09;;;;;;;3.53;0.40;;;;;;;5.73;100.00;100035.72;5010895;28;20049;-75
2021/11/21 04:08:35;;;;;;;0.60;0.20;;;;;;;5.47;100.00;100029.06;5014751;28;20022;-75
2021/11/21 04:11:01;;;;;;;1.05;0.60;;;;;;;5.38;100.00;100057.66;5020253;28;20065;-76
2021/11/21 04:13:26;;;;;;;1.70;0.50;;;;;;;5.36;100.00;100045.50;5018247;28;20033;-76
2021/11/21 04:15:51;;;;;;;1.75;0.63;;;;;;;5.23;100.00;100050.66;5019366;28;20030;-75
2021/11/21 04:18:17;;;;;;;1.60;0.60;;;;;;;5.24;100.00;100063.81;5017318;28;20044;-76
2021/11/21 04:20:43;;;;;;;3.60;0.40;;;;;;;5.25;100.00;100064.66;5019548;28;20443;-76
2021/11/21 04:23:08;;;;;;;5.40;0.80;;;;;;;5.24;100.00;100068.34;5014552;28;20090;-76
2021/11/21 04:25:33;;;;;;;2.28;0.63;;;;;;;5.13;100.00;100062.44;5015209;28;20038;-75
2021/11/21 04:27:59;;;;;;;1.35;0.55;;;;;;;5.10;100.00;100084.13;5013138;28;20034;-76
2021/11/21 04:30:24;;;;;;;1.20;0.40;;;;;;;5.12;100.00;100092.75;5018329;28;20091;-76
2021/11/21 04:32:50;;;;;;;1.30;0.50;;;;;;;4.97;100.00;100104.41;5016241;28;20022;-75
2021/11/21 04:35:18;;;;;;;1.35;0.40;;;;;;;5.08;100.00;100096.81;5015229;28;20345;-75
2021/11/21 04:37:45;;;;;;;1.08;0.50;;;;;;;5.06;100.00;100106.81;5016316;28;20474;-75
2021/11/21 04:40:11;;;;;;;1.73;0.50;;;;;;;4.96;100.00;100111.56;5015803;28;20044;-75
2021/11/21 04:42:38;;;;;;;3.97;0.88;;;;;;;4.93;100.00;100104.78;5013095;28;20072;-75
2021/11/21 04:45:04;;;;;;;1.90;0.38;;;;;;;4.80;100.00;100106.38;5016467;28;20030;-75
2021/11/21 04:47:29;;;;;;;0.77;0.20;;;;;;;4.78;100.00;100117.22;5014478;28;20042;-75
2021/11/21 04:49:56;;;;;;;2.25;0.22;;;;;;;4.76;100.00;100111.22;5017722;28;20545;-75
2021/11/21 04:52:21;;;;;;;0.98;0.28;;;;;;;4.81;100.00;100140.03;5015790;28;20036;-75
2021/11/21 04:54:47;;;;;;;1.13;0.40;;;;;;;4.73;100.00;100140.91;5017168;28;20101;-75
2021/11/21 04:57:15;;;;;;;1.42;0.35;;;;;;;4.71;100.00;100146.41;5015122;28;20104;-75
2021/11/21 04:59:41;;;;;;;1.33;0.30;;;;;;;4.69;100.00;100150.25;5016789;28;20033;-75
2021/11/21 05:02:07;;;;;;;3.40;0.50;;;;;;;4.52;100.00;100140.72;5002474;28;20029;-75
2021/11/21 05:04:32;;;;;;;1.27;0.50;;;;;;;4.37;100.00;100136.16;5015988;28;20459;-75
2021/11/21 05:06:58;;;;;;;1.85;0.47;;;;;;;4.34;100.00;100140.97;4998660;28;20060;-75
2021/11/21 05:09:25;;;;;;;1.10;0.30;;;;;;;4.38;100.00;100158.28;5015487;28;20026;-75
2021/11/21 05:11:50;;;;;;;1.27;0.40;;;;;;;4.29;100.00;100162.00;5016463;28;20025;-75
2021/11/21 05:14:18;;;;;;;2.17;0.40;;;;;;;4.45;100.00;100180.56;4998289;28;20033;-75
2021/11/21 05:16:45;;;;;;;2.47;0.38;;;;;;;4.44;100.00;100168.25;5014502;28;20054;-76
2021/11/21 05:19:11;;;;;;;0.68;0.28;;;;;;;4.17;100.00;100135.75;5015632;28;20029;-75
2021/11/21 05:21:36;;;;;;;1.15;0.50;;;;;;;4.36;100.00;100174.44;5014878;28;20112;-75
2021/11/21 05:24:02;;;;;;;3.47;0.35;;;;;;;4.46;100.00;100176.88;5016822;28;20603;-75
2021/11/21 05:26:28;;;;;;;1.08;0.30;;;;;;;4.31;100.00;100157.34;4996837;28;20367;-74
2021/11/21 05:28:54;;;;;;;1.23;0.35;;;;;;;4.43;100.00;100178.06;5015046;28;20109;-75
2021/11/21 05:31:20;;;;;;;1.40;0.63;;;;;;;4.43;100.00;100191.38;5016113;28;20451;-75
2021/11/21 05:33:46;;;;;;;1.13;0.30;;;;;;;4.51;100.00;100189.69;5013960;28;20037;-75
2021/11/21 05:36:11;;;;;;;0.93;0.40;;;;;;;4.48;100.00;100193.53;5015379;28;20100;-75
2021/11/21 05:38:37;;;;;;;2.30;0.52;;;;;;;4.52;100.00;100199.34;5015784;28;20125;-75
2021/11/21 05:41:02;;;;;;;2.72;0.47;;;;;;;4.54;100.00;100200.84;5006569;28;20030;-75
2021/11/21 05:43:28;;;;;;;1.42;0.40;;;;;;;4.47;100.00;100208.69;4994576;28;20091;-75
2021/11/21 05:45:53;;;;;;;1.08;0.50;;;;;;;4.35;100.00;100201.25;5002790;28;20120;-76
2021/11/21 05:48:18;;;;;;;1.38;0.60;;;;;;;4.43;100.00;100210.00;5015991;28;20061;-75
2021/11/21 05:50:44;;;;;;;1.85;0.50;;;;;;;4.44;100.00;100206.38;5013829;28;20444;-75
2021/11/21 05:53:10;;;;;;;4.40;0.60;;;;;;;4.37;100.00;100207.22;5014668;28;20038;-75
2021/11/21 05:55:35;;;;;;;1.50;0.40;;;;;;;4.44;100.00;100216.19;5015792;28;20022;-75
2021/11/21 05:58:01;;;;;;;1.88;0.55;;;;;;;4.33;100.00;100195.25;5015157;28;20364;-76
2021/11/21 06:00:27;;;;;;;2.15;0.50;;;;;;;4.45;100.00;100220.50;5015675;28;20018;-75
2021/11/21 06:02:53;;;;;;;0.75;0.30;;;;;;;4.46;100.00;100230.16;4998402;28;20522;-75
2021/11/21 06:05:19;;;;;;;0.90;0.40;;;;;;;4.53;100.00;100225.78;5014815;28;20134;-75
2021/11/21 06:07:45;;;;;;;1.27;0.30;;;;;;;4.47;100.00;100211.34;5015756;28;20033;-76
2021/11/21 06:10:12;;;;;;;0.70;0.30;;;;;;;4.40;100.00;100204.22;5015605;28;20058;-75
2021/11/21 06:12:38;;;;;;;1.33;0.47;;;;;;;4.61;100.00;100228.44;5015974;28;20029;-75
2021/11/21 06:15:05;;;;;;;0.93;0.40;;;;;;;4.54;100.00;100227.47;5014547;28;20352;-76
2021/11/21 06:17:30;;;;;;;1.33;0.40;;;;;;;4.61;100.00;100228.44;5018516;28;20036;-75
2021/11/21 06:19:56;;;;;;;1.75;0.40;;;;;;;4.54;100.00;100229.31;5014052;28;20026;-76
2021/11/21 06:22:22;;;;;;;1.85;0.30;;;;;;;4.10;100.00;100166.72;4997025;28;20096;-75
2021/11/21 06:24:47;;;;;;;1.40;0.40;;;;;;;4.61;100.00;100244.41;5014142;28;20036;-75
2021/11/21 06:27:14;;;;;;;1.98;0.35;;;;;;;4.75;100.00;100258.00;4995707;28;20030;-75
2021/11/21 06:29:40;;;;;;;0.43;0.30;;;;;;;4.61;100.00;100252.41;5027626;28;20093;-75
2021/11/21 06:32:06;;;;;;;2.47;0.50;;;;;;;4.54;100.00;100251.44;4995169;28;20081;-75
2021/11/21 06:34:31;;;;;;;0.65;0.30;;;;;;;4.63;100.00;100262.88;5012319;28;20030;-76
2021/11/21 06:36:57;;;;;;;1.58;0.30;;;;;;;4.68;100.00;100271.19;5016644;28;20088;-75
2021/11/21 06:39:23;;;;;;;1.10;0.30;;;;;;;4.70;100.00;100272.69;5011274;28;20026;-76
2021/11/21 06:41:48;;;;;;;0.93;0.30;;;;;;;4.67;100.00;100274.88;5015658;28;20121;-75
2021/11/21 06:44:14;;;;;;;0.98;0.40;;;;;;;4.63;100.00;100285.03;5012969;28;20033;-76
2021/11/21 06:46:39;;;;;;;3.67;0.30;;;;;;;4.38;100.00;100264.84;5015481;28;20049;-76
2021/11/21 06:49:06;;;;;;;0.70;0.30;;;;;;;4.35;100.00;100270.50;5013324;28;20026;-76
2021/11/21 06:51:32;;;;;;;1.10;0.30;;;;;;;4.42;100.00;100298.13;5012435;28;20037;-76
2021/11/21 06:53:57;;;;;;;1.63;0.40;;;;;;;4.48;100.00;100302.75;5015144;28;20034;-76
2021/11/21 06:56:24;;;;;;;4.70;0.40;;;;;;;4.35;100.00;100307.78;4995572;28;20133;-76
2021/11/21 06:58:50;;;;;;;0.80;0.30;;;;;;;4.39;100.00;100309.09;5014384;28;20025;-76
2021/11/21 07:01:15;;;;;;;1.42;0.32;;;;;;;4.20;100.00;100294.34;5012074;28;20032;-76
2021/11/21 07:03:41;;;;;;;0.88;0.40;;;;;;;4.29;100.00;100324.44;5013465;28;20057;-76
2021/11/21 07:06:07;;;;;;;2.33;0.30;;;;;;;4.27;100.00;100319.28;5010397;28;20103;-77
2021/11/21 07:08:32;;;;;;;0.98;0.30;;;;;;;4.26;100.00;100330.13;5011868;28;20035;-77
2021/11/21 07:10:58;;;;;;;0.45;0.20;;;;;;;4.21;100.00;100335.97;5012789;28;20109;-76
2021/11/21 07:13:23;;;;;;;0.73;0.30;;;;;;;4.28;100.00;100350.25;5013994;28;20125;-76
2021/11/21 07:15:50;;;;;;;0.80;0.20;;;;;;;4.23;100.00;100356.06;5012544;28;20080;-77
2021/11/21 07:18:16;;;;;;;1.05;0.20;;;;;;;4.13;100.00;100347.44;5009321;28;20410;-76
2021/11/21 07:20:41;;;;;;;0.77;0.20;;;;;;;4.13;100.00;100358.09;5007064;28;20025;-76
2021/11/21 07:23:09;;;;;;;0.22;0.17;;;;;;;3.98;100.00;100311.88;5009145;28;20052;-76
2021/11/21 07:25:34;;;;;;;0.32;0.20;;;;;;;4.33;100.00;100376.38;5014008;28;20360;-76
2021/11/21 07:27:59;;;;;;;0.57;0.20;;;;;;;4.26;100.00;100367.41;4994050;28;20037;-76
2021/11/21 07:30:25;;;;;;;0.90;0.20;;;;;;;4.31;100.00;100389.03;4996583;28;20022;-76
2021/11/21 07:32:53;;;;;;;1.13;0.30;;;;;;;4.04;100.00;100367.09;5014088;28;20022;-76
2021/11/21 07:35:20;;;;;;;0.65;0.20;;;;;;;4.17;100.00;100391.41;5012988;28;20030;-77
2021/11/21 07:37:46;;;;;;;1.35;0.20;;;;;;;4.27;100.00;100401.00;5013881;28;20033;-76
2021/11/21 07:40:16;;;;;;;0.32;0.20;;;;;;;4.19;100.00;100405.34;5010380;28;20124;-77
2021/11/21 07:42:43;;;;;;;0.75;0.25;;;;;;;4.23;100.00;100414.66;5014319;28;20439;-76
2021/11/21 07:45:11;;;;;;;2.20;0.30;;;;;;;3.99;100.00;100385.41;5011660;28;20026;-76
2021/11/21 07:47:40;;;;;;;0.88;0.20;;;;;;;4.09;100.00;100420.66;5022210;28;20034;-77
2021/11/21 07:50:07;;;;;;;0.93;0.20;;;;;;;4.00;100.00;100430.47;5017236;28;20030;-76
2021/11/21 07:52:32;;;;;;;3.90;0.35;;;;;;;3.96;100.00;100439.78;5012795;28;20451;-76
2021/11/21 07:54:58;;;;;;;0.88;0.30;;;;;;;3.91;100.00;100414.69;5011684;28;20095;-76
2021/11/21 07:57:23;;;;;;;0.10;0.10;;;;;;;3.83;100.00;100430.63;5013201;28;20088;-76
2021/11/21 07:59:48;;;;;;;2.17;0.30;;;;;;;3.92;100.00;100446.44;5012526;28;20030;-76
2021/11/21 08:02:14;;;;;;;0.90;0.20;;;;;;;3.91;100.00;100455.44;5012398;28;20030;-76
2021/11/21 08:04:39;;;;;;;1.08;0.20;;;;;;;3.71;100.00;100430.97;5013940;28;20526;-75
2021/11/21 08:07:08;;;;;;;0.63;0.30;;;;;;;3.90;100.00;100458.25;5011862;28;20040;-75
2021/11/21 08:09:34;;;;;;;0.68;0.40;;;;;;;3.72;100.00;100437.94;5011623;28;20022;-76
2021/11/21 08:11:59;;;;;;;0.85;0.20;;;;;;;3.82;99.97;100452.94;4996080;28;20123;-76
2021/11/21 08:14:25;;;;;;;0.73;0.30;;;;;;;3.91;99.86;100473.25;5013252;28;20088;-76
2021/11/21 08:16:50;;;;;;;2.67;0.20;;;;;;;3.84;99.37;100475.72;4998036;28;20034;-76
2021/11/21 08:19:15;;;;;;;1.00;0.30;;;;;;;3.83;100.00;100484.69;4994111;28;20033;-76
2021/11/21 08:21:41;;;;;;;0.52;0.20;;;;;;;3.83;100.00;100490.00;5005737;28;20471;-76
2021/11/21 08:24:09;;;;;;;0.80;0.20;;;;;;;3.76;100.00;100489.00;5016035;28;20113;-76
2021/11/21 08:26:37;;;;;;;0.65;0.20;;;;;;;3.83;100.00;100494.50;4995465;28;20033;-77
2021/11/21 08:29:04;;;;;;;0.57;0.20;;;;;;;3.86;100.00;100510.16;5013300;28;20038;-77
2021/11/21 08:31:29;;;;;;;0.40;0.20;;;;;;;3.86;99.69;100504.81;5012072;28;20041;-77
2021/11/21 08:33:55;;;;;;;0.13;0.10;;;;;;;3.82;99.23;100522.97;5013301;28;20371;-76
2021/11/21 08:36:20;;;;;;;1.88;0.20;;;;;;;3.85;99.56;100527.13;5009774;28;20092;-76
2021/11/21 08:38:46;;;;;;;0.52;0.30;;;;;;;3.76;99.35;100527.09;5010416;28;20072;-76
2021/11/21 08:41:11;;;;;;;0.63;0.22;;;;;;;3.72;99.35;100543.56;4995359;28;20041;-76
2021/11/21 08:43:38;;;;;;;0.73;0.20;;;;;;;3.61;99.45;100512.75;5012166;28;20033;-76
2021/11/21 08:46:03;;;;;;;0.88;0.20;;;;;;;3.73;98.95;100548.69;5012615;28;20069;-76
2021/11/21 08:48:30;;;;;;;0.47;0.25;;;;;;;3.81;99.23;100568.34;5011623;28;20060;-76
2021/11/21 08:50:58;;;;;;;1.42;0.30;;;;;;;3.71;97.90;100565.84;5013736;28;20034;-76
2021/11/21 08:53:23;;;;;;;0.25;0.20;;;;;;;3.68;97.69;100561.66;5018143;28;20037;-75
2021/11/21 08:55:49;;;;;;;0.60;0.15;;;;;;;3.83;98.08;100585.00;5009673;28;20038;-75
2021/11/21 08:58:16;;;;;;;0.30;0.15;;;;;;;3.87;98.91;100583.69;5012356;28;20460;-76
2021/11/21 09:00:41;;;;;;;0.43;0.17;;;;;;;3.92;98.67;100589.38;5009163;28;20038;-76
2021/11/21 09:03:07;;;;;;;0.47;0.10;;;;;;;3.82;98.59;100573.53;5011151;28;20045;-77
2021/11/21 09:05:34;;;;;;;0.43;0.20;;;;;;;3.92;97.66;100603.50;5010316;28;20546;-77
2021/11/21 09:07:59;;;;;;;0.22;0.20;;;;;;;3.78;97.60;100587.31;5010323;28;20042;-77
2021/11/21 09:10:25;;;;;;;0.80;0.13;;;;;;;3.97;97.53;100603.00;5012616;28;20030;-76
2021/11/21 09:12:51;;;;;;;0.73;0.13;;;;;;;4.00;97.79;100614.16;5011728;28;20026;-77
2021/11/21 09:15:18;;;;;;;1.10;0.20;;;;;;;3.94;97.01;100616.63;5020098;28;20022;-77
2021/11/21 09:17:45;;;;;;;0.80;0.20;;;;;;;4.02;97.45;100621.19;5018405;28;20046;-76
2021/11/21 09:20:12;;;;;;;0.60;0.10;;;;;;;3.91;97.22;100630.31;5016223;28;20061;-76
2021/11/21 09:22:40;;;;;;;2.47;0.20;;;;;;;3.92;97.30;100627.47;5015007;28;20121;-76
2021/11/21 09:25:07;;;;;;;0.60;0.30;;;;;;;3.81;96.68;100622.44;5015470;28;20030;-77
2021/11/21 09:27:33;;;;;;;1.55;0.20;;;;;;;3.81;97.03;100619.78;5014982;28;20072;-76
2021/11/21 09:29:58;;;;;;;0.40;0.13;;;;;;;3.94;97.42;100632.59;5015379;28;20073;-76
2021/11/21 09:32:24;;;;;;;0.40;0.13;;;;;;;4.12;96.82;100637.84;5014670;28;20123;-76
2021/11/21 09:34:49;;;;;;;1.55;0.20;;;;;;;3.91;96.14;100622.31;5015638;28;20030;-76
2021/11/21 09:37:16;;;;;;;1.73;0.22;;;;;;;3.94;96.35;100630.81;5015815;28;20065;-77
2021/11/21 09:39:43;;;;;;;1.70;0.30;;;;;;;4.08;96.36;100637.34;5014245;28;20105;-76
2021/11/21 09:42:08;;;;;;;0.82;0.20;;;;;;;4.02;95.66;100637.16;5016493;28;20056;-77
2021/11/21 09:44:34;;;;;;;0.20;0.20;;;;;;;3.97;95.96;100640.28;5015152;28;20444;-76
2021/11/21 09:46:59;;;;;;;0.45;0.10;;;;;;;3.94;96.12;100630.81;5013759;28;20133;-77
2021/11/21 09:49:26;;;;;;;1.65;0.17;;;;;;;4.03;96.24;100642.31;5016070;28;20034;-77
2021/11/21 09:51:52;;;;;;;0.30;0.10;;;;;;;3.87;95.38;100628.94;5014033;28;20471;-77
2021/11/21 09:54:18;;;;;;;0.20;0.10;;;;;;;3.63;95.80;100587.06;5016660;28;20022;-77
2021/11/21 09:56:46;;;;;;;2.03;0.20;;;;;;;4.12;95.55;100665.31;5018018;28;20459;-77
2021/11/21 09:59:11;;;;;;;0.40;0.10;;;;;;;4.19;95.82;100661.00;5015105;28;20026;-77
2021/11/21 10:01:42;;;;;;;1.25;0.30;;;;;;;4.19;95.15;100645.03;5017936;28;20084;-77
2021/11/21 10:04:11;;;;;;;0.30;0.10;;;;;;;4.31;95.13;100660.72;5016493;28;20055;-77
2021/11/21 10:06:45;;;;;;;1.13;0.13;;;;;;;4.00;95.75;100629.31;5018160;28;20050;-78
2021/11/21 10:09:13;;;;;;;0.35;0.20;;;;;;;4.34;95.79;100676.34;5019206;28;20032;-77
2021/11/21 10:12:05;;;;;;;0.30;0.17;;;;;;;4.24;95.56;100682.69;5013138;28;20030;-77
2021/11/21 10:14:51;;;;;;;0.50;0.20;;;;;;;4.15;95.21;100694.28;5015941;28;20025;-77
2021/11/21 10:17:23;;;;;;;0.80;0.32;;;;;;;4.31;95.07;100687.38;5013099;28;20034;-77
2021/11/21 10:20:22;;;;;;;0.80;0.30;;;;;;;4.23;94.36;100688.97;5015972;28;20040;-76
2021/11/21 10:22:52;;;;;;;0.43;0.17;;;;;;;4.34;95.50;100697.66;4984492;28;20070;-76
2021/11/21 10:25:32;;;;;;;0.77;0.10;;;;;;;4.30;94.05;100709.66;5017146;28;20370;-76
2021/11/21 10:28:05;;;;;;;0.88;0.20;;;;;;;4.21;94.17;100698.97;5014268;28;20121;-77
2021/11/21 10:30:31;;;;;;;1.15;0.40;;;;;;;4.20;93.70;100702.63;5014889;28;20149;-77
2021/11/21 10:33:04;;;;;;;1.00;0.40;;;;;;;4.23;93.73;100712.13;5013477;28;20026;-77
2021/11/21 10:35:30;;;;;;;0.20;0.20;;;;;;;4.29;93.87;100703.50;5010560;28;20418;-77
2021/11/21 10:37:59;;;;;;;1.65;0.20;;;;;;;4.42;93.28;100727.84;5012827;28;20026;-77
2021/11/21 10:40:25;;;;;;;1.27;0.40;;;;;;;4.37;93.30;100738.16;5013553;28;20036;-76
2021/11/21 10:42:52;;;;;;;0.73;0.30;;;;;;;4.37;93.36;100740.84;5013183;28;20030;-77
2021/11/21 10:45:24;;;;;;;1.83;0.30;;;;;;;4.46;93.04;100744.34;5015989;28;20032;-77
2021/11/21 10:47:53;;;;;;;0.90;0.20;;;;;;;4.42;93.08;100751.81;5014735;28;20041;-77
2021/11/21 10:50:49;;;;;;;0.98;0.30;;;;;;;4.47;92.91;100754.03;5015501;28;20026;-76
2021/11/21 10:53:15;;;;;;;0.70;0.30;;;;;;;4.60;93.33;100753.53;5029340;28;20038;-77
2021/11/21 10:55:41;;;;;;;0.63;0.30;;;;;;;4.53;92.96;100752.53;5013421;28;20053;-76
2021/11/21 10:58:17;;;;;;;0.77;0.20;;;;;;;4.61;91.56;100756.06;4996969;28;20041;-77
2021/11/21 11:00:55;;;;;;;0.47;0.20;;;;;;;4.31;91.54;100690.03;4989439;28;20100;-76
2021/11/21 11:03:22;;;;;;;0.30;0.13;;;;;;;4.56;91.75;100747.72;4993506;28;20030;-77
2021/11/21 11:05:48;;;;;;;1.10;0.17;;;;;;;4.60;91.83;100764.22;5009801;28;20057;-77
2021/11/21 11:08:25;;;;;;;0.32;0.10;;;;;;;4.23;90.49;100690.81;5013410;28;20033;-77
2021/11/21 11:10:50;;;;;;;0.40;0.20;;;;;;;4.40;90.51;100705.03;5012852;28;20100;-77
2021/11/21 11:13:16;;;;;;;0.68;0.20;;;;;;;4.70;91.09;100771.09;5013397;28;20095;-77
2021/11/21 11:15:45;;;;;;;0.22;0.10;;;;;;;4.70;92.21;100765.75;4996825;28;20038;-77
2021/11/21 11:18:13;;;;;;;0.88;0.20;;;;;;;4.65;90.92;100770.72;5013032;28;20029;-77
2021/11/21 11:20:47;;;;;;;1.42;0.20;;;;;;;4.62;90.22;100778.22;5020028;28;20030;-77
2021/11/21 11:23:14;;;;;;;0.28;0.10;;;;;;;4.43;89.74;100765.97;5014269;28;20063;-76
2021/11/21 11:25:43;;;;;;;0.30;0.20;;;;;;;4.60;90.23;100790.84;5012961;28;20056;-76
2021/11/21 11:28:24;;;;;;;1.35;0.25;;;;;;;4.61;90.25;100790.72;4995085;28;20041;-76